ADDS METAR Data INFO
IDs: Format: Raw Decoded Include TAF

Data at: 2326 UTC 19 Oct 2017

KMWL 192253Z AUTO 13010KT 10SM CLR 26/11 A3004 RMK AO2 SLP163 T02560111
KMWL 192153Z AUTO 13011KT 10SM CLR 26/09 A3004 RMK AO2 SLP162 T02610094
KMWL 192053Z AUTO 14012KT 10SM CLR 28/10 A3004 RMK AO2 SLP163 T02780100 56028
KMWL 191953Z AUTO 13010KT 10SM CLR 28/11 A3006 RMK AO2 SLP167 T02780111
KMWL 191853Z AUTO 16009KT 10SM CLR 27/11 A3009 RMK AO2 SLP178 T02720106
KMWL 191753Z AUTO 16010G14KT 10SM CLR 26/11 A3013 RMK AO2 SLP191 T02610106 10261 20122 58013
KMWL 191653Z AUTO 14012KT 10SM CLR 24/12 A3015 RMK AO2 SLP200 T02440122
KMWL 191553Z AUTO 18008KT 10SM CLR 22/13 A3016 RMK AO2 SLP204 T02170133
KMWL 191453Z AUTO 16006KT 10SM CLR 18/12 A3016 RMK AO2 SLP206 T01780117 53019
KMWL 191353Z AUTO 15006KT 10SM CLR 14/10 A3014 RMK AO2 SLP200 T01440100
KMWL 191253Z AUTO 14008KT 10SM CLR 13/08 A3012 RMK AO2 SLP192 T01280083
KMWL 191153Z AUTO 14009KT 10SM CLR 13/08 A3011 RMK AO2 SLP187 T01280078 10167 20117 53007
KMWL 191053Z AUTO 13007KT 10SM CLR 12/07 A3010 RMK AO2 SLP182 T01220072
KMWL 190953Z AUTO 13006KT 10SM CLR 12/07 A3008 RMK AO2 SLP176 T01220067
KMWL 190853Z AUTO 13007KT 10SM CLR 13/07 A3008 RMK AO2 SLP177 T01280067 58000
KMWL 190753Z AUTO 14007KT 10SM CLR 14/07 A3009 RMK AO2 SLP177 T01390067
KMWL 190653Z AUTO 14010KT 10SM CLR 14/07 A3009 RMK AO2 SLP177 T01440067
KMWL 190553Z AUTO 15009KT 10SM CLR 17/06 A3009 RMK AO2 SLP177 T01670061 10228 20161 403000089 51005
KMWL 190453Z AUTO 15010KT 10SM CLR 17/07 A3008 RMK AO2 SLP177 T01670067
KMWL 190353Z AUTO 16010KT 10SM CLR 18/07 A3008 RMK AO2 SLP176 T01830067
KMWL 190253Z AUTO 14011KT 10SM CLR 18/06 A3007 RMK AO2 SLP175 T01830061 51010
KMWL 190153Z AUTO 14010KT 10SM CLR 19/06 A3006 RMK AO2 SLP172 T01890061
KMWL 190053Z AUTO 13007KT 10SM CLR 19/06 A3006 RMK AO2 SLP172 T01890061
KMWL 182353Z AUTO 13006KT 10SM CLR 23/05 A3004 RMK AO2 SLP165 T02280050 10300 20228 53003
KMWL 182253Z AUTO 16010KT 10SM CLR 27/03 A3003 RMK AO2 SLP160 T02670028
KMWL 182153Z AUTO 17012G19KT 10SM CLR 29/01 A3003 RMK AO2 SLP160 T02890011
KMWL 182053Z AUTO 19012KT 10SM CLR 30/03 A3003 RMK AO2 SLP159 T03000028 56029
KMWL 181953Z AUTO 16014G23KT 10SM CLR 29/05 A3005 RMK AO2 SLP167 T02890050
KMWL 181853Z AUTO 16015G21KT 10SM CLR 28/04 A3009 RMK AO2 SLP179 T02830044
KMWL 181753Z AUTO 16013G19KT 10SM CLR 27/05 A3012 RMK AO2 SLP190 T02670050 10267 20089 58009
KMWL 181653Z AUTO 17010KT 10SM CLR 24/07 A3013 RMK AO2 SLP194 T02390072
KMWL 181553Z AUTO 16009KT 10SM CLR 21/08 A3014 RMK AO2 SLP199 T02060078
KMWL 181453Z AUTO 16008KT 10SM CLR 16/07 A3015 RMK AO2 SLP202 T01560072 53013
KMWL 181353Z AUTO 14009KT 10SM CLR 12/07 A3013 RMK AO2 SLP198 T01170067
KMWL 181253Z AUTO 14009KT 10SM CLR 09/06 A3011 RMK AO2 SLP193 T00940061
KMWL 181153Z AUTO 14009KT 10SM CLR 09/06 A3011 RMK AO2 SLP189 T00890056 10111 20089 53001